Time;durP1;ratioP1;P1;durP2;ratioP2;P2;SDS_P1;SDS_P2;PMS_P1;PMS_P2;Temp;Humidity;BMP_temperature;BMP_pressure;BME280_temperature;BME280_humidity;BME280_pressure;Samples;Min_cycle;Max_cycle;Signal;HPM_P1;HPM_P2
2024/03/07 00:00:54;;;;;;;7.05;6.35;;;;;;;4.31;100.00;99195.06;15280202;19;20085;-49
2024/03/07 00:06:20;;;;;;;8.05;7.25;;;;;;;4.29;100.00;99186.31;15289568;19;20014;-50
2024/03/07 00:11:48;;;;;;;9.73;7.90;;;;;;;4.28;100.00;99189.09;15279296;19;20077;-50
2024/03/07 00:17:13;;;;;;;9.05;8.10;;;;;;;4.27;100.00;99192.72;15282650;19;20020;-51
2024/03/07 00:22:38;;;;;;;9.73;8.32;;;;;;;4.25;100.00;99190.16;15284623;19;20085;-51
2024/03/07 00:28:06;;;;;;;9.45;7.95;;;;;;;4.23;100.00;99181.41;15290280;19;20082;-50
2024/03/07 00:33:32;;;;;;;10.18;8.55;;;;;;;4.23;100.00;99181.41;15024427;19;5002019;-51
2024/03/07 00:39:17;;;;;;;9.15;8.18;;;;;;;4.24;100.00;99171.56;15279385;19;20025;-50
2024/03/07 00:44:45;;;;;;;9.23;8.32;;;;;;;4.35;100.00;99162.88;15289797;19;20015;-50
2024/03/07 00:50:10;;;;;;;10.38;9.25;;;;;;;4.41;100.00;99168.66;15279127;19;20018;-50
2024/03/07 00:55:35;;;;;;;10.00;8.98;;;;;;;4.38;100.00;99168.00;15282854;19;20055;-50
2024/03/07 01:01:03;;;;;;;10.43;9.23;;;;;;;4.31;100.00;99165.72;15288774;19;20014;-52
2024/03/07 01:06:28;;;;;;;10.95;9.25;;;;;;;4.31;100.00;99162.22;15303169;19;20018;-50
2024/03/07 01:11:54;;;;;;;11.38;9.88;;;;;;;4.29;100.00;99153.47;15293278;19;20014;-50
2024/03/07 01:17:22;;;;;;;10.63;9.63;;;;;;;4.24;100.00;99137.78;15293903;19;20018;-50
2024/03/07 01:22:48;;;;;;;10.73;9.63;;;;;;;4.21;100.00;99142.47;15299395;19;20796;-51
2024/03/07 01:28:14;;;;;;;11.10;9.82;;;;;;;4.19;100.00;99142.53;15293553;19;20018;-49
2024/03/07 01:33:42;;;;;;;11.30;10.07;;;;;;;4.21;100.00;99142.47;15294027;19;20363;-53
2024/03/07 01:39:07;;;;;;;10.40;9.40;;;;;;;4.19;100.00;99142.53;15292019;19;20130;-50
2024/03/07 01:44:32;;;;;;;13.38;10.50;;;;;;;4.21;100.00;99139.78;15301365;19;20358;-49
2024/03/07 01:50:00;;;;;;;11.10;9.85;;;;;;;4.23;100.00;99128.06;15289819;19;20025;-53
2024/03/07 01:55:26;;;;;;;10.32;9.32;;;;;;;4.24;100.00;99132.44;15298687;19;20018;-52
2024/03/07 02:00:50;;;;;;;11.52;9.68;;;;;;;4.25;100.00;99131.47;15287593;19;20018;-48
2024/03/07 02:06:17;;;;;;;10.57;9.57;;;;;;;4.25;100.00;99133.28;15300083;19;20020;-55
2024/03/07 02:11:42;;;;;;;11.18;10.07;;;;;;;4.24;100.00;99129.78;15284382;19;20018;-48
2024/03/07 02:17:08;;;;;;;10.93;9.75;;;;;;;4.26;100.00;99135.84;15291144;19;20560;-52
2024/03/07 02:22:35;;;;;;;15.18;9.82;;;;;;;4.28;100.00;99130.41;15291462;19;20033;-52
2024/03/07 02:28:00;;;;;;;10.52;9.43;;;;;;;4.25;100.00;99131.47;15292939;19;20751;-54
2024/03/07 02:33:32;;;;;;;10.95;9.35;;;;;;;4.24;100.00;99126.22;15285777;19;20036;-53
2024/03/07 02:39:06;;;;;;;11.32;9.60;;;;;;;4.21;100.00;99116.63;15284426;19;20364;-52
2024/03/07 02:44:31;;;;;;;11.23;9.00;;;;;;;4.18;100.00;99116.00;15284402;19;20037;-50
2024/03/07 02:49:56;;;;;;;12.73;9.82;;;;;;;4.13;100.00;99116.31;15283947;19;20074;-54
2024/03/07 02:55:25;;;;;;;13.82;10.98;;;;;;;4.08;100.00;99118.41;15287248;19;20048;-52
2024/03/07 03:00:50;;;;;;;17.17;12.18;;;;;;;4.02;100.00;99109.00;15034478;19;5001672;-50
2024/03/07 03:06:16;;;;;;;18.50;13.05;;;;;;;3.99;100.00;99120.75;15292799;19;20010;-54
2024/03/07 03:11:43;;;;;;;20.65;14.70;;;;;;;3.97;100.00;99121.81;15285873;19;20063;-54
2024/03/07 03:17:08;;;;;;;23.48;15.15;;;;;;;3.96;100.00;99123.59;15282125;19;20086;-55
2024/03/07 03:22:33;;;;;;;25.00;16.60;;;;;;;3.94;100.00;99112.19;15289859;19;20635;-54
2024/03/07 03:28:01;;;;;;;29.35;18.00;;;;;;;3.92;100.00;99113.25;15289209;19;20041;-50
2024/03/07 03:33:26;;;;;;;36.08;20.50;;;;;;;3.91;100.00;99122.19;15289102;19;20018;-50
2024/03/07 03:38:51;;;;;;;38.17;21.35;;;;;;;3.91;100.00;99120.41;15313414;19;20027;-56
2024/03/07 03:44:18;;;;;;;41.75;23.20;;;;;;;3.88;100.00;99115.28;15292544;19;20019;-55
2024/03/07 03:49:42;;;;;;;46.88;25.80;;;;;;;3.88;100.00;99125.94;15287139;19;20022;-57
2024/03/07 03:55:07;;;;;;;48.75;26.13;;;;;;;3.89;100.00;99119.66;15291029;19;20631;-54
2024/03/07 04:00:35;;;;;;;49.90;27.85;;;;;;;3.91;100.00;99131.06;15284663;19;20090;-52
2024/03/07 04:06:00;;;;;;;48.50;26.33;;;;;;;3.92;100.00;99130.13;15289927;19;20041;-52
2024/03/07 04:11:24;;;;;;;46.88;28.00;;;;;;;3.97;100.00;99137.81;15280776;19;20018;-55
2024/03/07 04:16:55;;;;;;;49.35;27.20;;;;;;;3.97;100.00;99137.81;15292173;19;20010;-51
2024/03/07 04:22:20;;;;;;;48.85;27.77;;;;;;;3.98;100.00;99145.69;15283250;19;20015;-55
2024/03/07 04:27:46;;;;;;;44.97;28.40;;;;;;;3.97;100.00;99141.31;15285096;19;20085;-53
2024/03/07 04:33:13;;;;;;;42.70;26.83;;;;;;;3.99;100.00;99144.75;15286996;19;20042;-54
2024/03/07 04:38:47;;;;;;;44.70;28.30;;;;;;;4.00;100.00;99146.44;15284466;19;20035;-47
2024/03/07 04:44:12;;;;;;;47.08;28.65;;;;;;;3.99;100.00;99142.06;15292479;19;20022;-49
2024/03/07 04:49:43;;;;;;;44.75;28.50;;;;;;;3.99;100.00;99154.56;15293670;19;20089;-49
2024/03/07 04:55:10;;;;;;;39.83;27.67;;;;;;;3.94;100.00;99149.50;15301926;19;20110;-49
2024/03/07 05:00:35;;;;;;;39.10;26.63;;;;;;;3.94;100.00;99165.50;15298887;19;20018;-49
2024/03/07 05:06:02;;;;;;;39.58;26.83;;;;;;;3.93;100.00;99166.50;15302259;19;20347;-47
2024/03/07 05:11:27;;;;;;;41.38;25.95;;;;;;;3.93;100.00;99166.50;15286772;19;20025;-49
2024/03/07 05:17:04;;;;;;;42.88;28.50;;;;;;;3.94;100.00;99173.50;15299501;19;20085;-47
2024/03/07 05:22:32;;;;;;;41.80;27.17;;;;;;;3.96;100.00;99173.41;15287456;19;20069;-47
2024/03/07 05:27:56;;;;;;;28.58;19.80;;;;;;;3.97;100.00;99173.31;15292186;19;20021;-47
2024/03/07 05:33:22;;;;;;;28.40;20.77;;;;;;;4.00;100.00;99174.91;15295543;19;20023;-49
2024/03/07 05:38:49;;;;;;;40.72;26.15;;;;;;;4.03;100.00;99173.88;15300583;19;20024;-46
2024/03/07 05:44:15;;;;;;;43.83;27.75;;;;;;;4.01;100.00;99182.81;15294870;19;20024;-47
2024/03/07 05:49:40;;;;;;;45.28;27.67;;;;;;;4.00;100.00;99178.44;15297560;19;20025;-49
2024/03/07 05:55:08;;;;;;;86.15;30.60;;;;;;;4.01;100.00;99187.28;15296135;19;20395;-48
2024/03/07 06:00:34;;;;;;;75.60;32.38;;;;;;;4.01;100.00;99196.16;15294288;19;20406;-48
2024/03/07 06:05:59;;;;;;;126.05;36.42;;;;;;;4.03;100.00;99200.53;15295407;19;20019;-49
2024/03/07 06:11:26;;;;;;;101.25;35.35;;;;;;;4.04;100.00;99204.91;15284247;19;20015;-47
2024/03/07 06:16:52;;;;;;;76.82;35.97;;;;;;;4.07;100.00;99212.69;15296628;19;20021;-47
2024/03/07 06:22:17;;;;;;;61.85;32.50;;;;;;;4.10;100.00;99213.38;15286246;19;20021;-49
2024/03/07 06:27:48;;;;;;;55.42;31.20;;;;;;;4.14;100.00;99219.34;15300093;19;20018;-47
2024/03/07 06:33:14;;;;;;;54.10;32.30;;;;;;;4.17;100.00;99227.16;15292863;19;20014;-52
2024/03/07 06:38:49;;;;;;;53.60;31.88;;;;;;;4.22;100.00;99229.53;15288541;19;20029;-48
2024/03/07 06:44:17;;;;;;;51.22;30.50;;;;;;;4.27;100.00;99233.59;15291695;19;20355;-46
2024/03/07 06:49:42;;;;;;;48.78;29.60;;;;;;;4.32;100.00;99228.81;15282049;19;20019;-49
2024/03/07 06:55:08;;;;;;;49.47;29.98;;;;;;;4.35;100.00;99232.22;15293106;19;20014;-50
2024/03/07 07:00:37;;;;;;;42.75;28.45;;;;;;;4.35;100.00;99237.56;15290816;19;20078;-49
2024/03/07 07:06:02;;;;;;;40.30;27.08;;;;;;;4.40;100.00;99235.47;15294585;19;20101;-52
2024/03/07 07:11:27;;;;;;;39.25;26.95;;;;;;;4.47;100.00;99248.25;15288178;19;20306;-51
2024/03/07 07:16:55;;;;;;;34.33;25.58;;;;;;;4.53;100.00;99243.50;15298852;19;20010;-49
2024/03/07 07:22:20;;;;;;;34.83;25.70;;;;;;;4.54;100.00;99251.38;15287025;19;20014;-48
2024/03/07 07:27:47;;;;;;;32.50;24.92;;;;;;;4.54;100.00;99234.53;15291978;19;20022;-48
2024/03/07 07:33:14;;;;;;;31.15;24.30;;;;;;;4.50;100.00;99247.22;15287747;19;20034;-48
2024/03/07 07:38:39;;;;;;;30.20;22.90;;;;;;;4.52;100.00;99239.97;15284303;19;20365;-49
2024/03/07 07:44:04;;;;;;;27.23;21.10;;;;;;;4.61;100.00;99233.16;15284142;19;20447;-48
2024/03/07 07:49:31;;;;;;;25.13;21.05;;;;;;;4.81;100.00;99233.63;15281966;19;20551;-49
2024/03/07 07:54:56;;;;;;;25.88;21.00;;;;;;;5.05;100.00;99236.41;15285171;19;20718;-49
2024/03/07 08:00:26;;;;;;;22.77;17.98;;;;;;;5.22;100.00;99232.56;15287770;19;20025;-47
2024/03/07 08:05:54;;;;;;;23.98;16.08;;;;;;;5.24;100.00;99220.81;15291245;19;20086;-47
2024/03/07 08:11:19;;;;;;;17.17;15.35;;;;;;;5.11;100.00;99224.47;15292361;19;20094;-49
2024/03/07 08:16:44;;;;;;;20.08;15.77;;;;;;;5.07;100.00;99223.81;15308962;19;20025;-48
2024/03/07 08:22:11;;;;;;;18.05;15.07;;;;;;;5.10;100.00;99234.31;15295901;19;20025;-48
2024/03/07 08:27:36;;;;;;;15.52;13.93;;;;;;;5.20;100.00;99224.69;15300932;19;20086;-49
2024/03/07 08:33:03;;;;;;;14.98;13.35;;;;;;;5.36;100.00;99228.94;15297344;19;20078;-47
2024/03/07 08:38:30;;;;;;;13.93;11.32;;;;;;;5.42;100.00;99209.81;15294862;19;20029;-48
2024/03/07 08:43:56;;;;;;;14.50;11.25;;;;;;;5.43;100.00;99192.81;15296108;19;20028;-48
2024/03/07 08:49:20;;;;;;;12.77;9.73;;;;;;;5.48;100.00;99173.78;15294236;19;20820;-49
2024/03/07 08:54:47;;;;;;;10.65;9.23;;;;;;;5.64;100.00;99168.16;15301159;19;20360;-48
2024/03/07 09:00:22;;;;;;;12.23;8.00;;;;;;;5.75;100.00;99159.38;15293054;19;20014;-46
2024/03/07 09:05:46;;;;;;;7.55;6.45;;;;;;;5.80;100.00;99134.00;15299893;19;20033;-46
2024/03/07 09:11:14;;;;;;;8.32;7.43;;;;;;;5.75;100.00;99137.97;15290029;19;20475;-49
2024/03/07 09:16:39;;;;;;;10.07;7.22;;;;;;;5.59;100.00;99124.88;15301299;19;20021;-49
2024/03/07 09:22:04;;;;;;;11.90;8.45;;;;;;;5.38;100.00;99131.69;15287529;19;20022;-49
2024/03/07 09:27:31;;;;;;;10.68;9.00;;;;;;;5.36;100.00;99116.69;15304033;19;20115;-46
2024/03/07 09:32:56;;;;;;;10.57;7.32;;;;;;;5.51;100.00;99109.41;15293964;19;20032;-48
2024/03/07 09:38:22;;;;;;;10.77;8.10;;;;;;;5.65;100.00;99100.38;15290154;19;20475;-49
2024/03/07 09:43:51;;;;;;;10.95;7.65;;;;;;;5.88;100.00;99095.13;15292482;19;20094;-47
2024/03/07 09:49:16;;;;;;;9.25;6.50;;;;;;;5.88;100.00;99085.28;15291626;19;20467;-46
2024/03/07 09:54:41;;;;;;;8.57;6.90;;;;;;;5.58;100.00;99077.75;15296819;19;20014;-48
2024/03/07 10:00:18;;;;;;;7.93;6.18;;;;;;;5.35;100.00;99085.63;15295133;19;20081;-47
2024/03/07 10:05:42;;;;;;;7.80;6.63;;;;;;;5.39;100.00;99076.41;15293490;19;20388;-48
2024/03/07 10:11:14;;;;;;;6.90;5.30;;;;;;;5.31;100.00;99071.59;15289312;19;20018;-49
2024/03/07 10:16:41;;;;;;;6.85;5.20;;;;;;;5.23;100.00;99068.66;15299925;19;20483;-48
2024/03/07 10:22:06;;;;;;;7.55;5.05;;;;;;;5.38;100.00;99067.53;15287413;19;20029;-49
2024/03/07 10:27:32;;;;;;;5.60;4.50;;;;;;;5.66;100.00;99059.31;15298572;19;20604;-49
2024/03/07 10:33:01;;;;;;;5.85;5.00;;;;;;;5.85;100.00;99050.75;15289753;19;20013;-48
2024/03/07 10:38:33;;;;;;;6.40;5.50;;;;;;;5.89;100.00;99040.69;15029712;19;5001427;-81
2024/03/07 10:44:00;;;;;;;5.75;5.10;;;;;;;5.95;100.00;99045.56;15298523;19;20022;-83
2024/03/07 10:49:29;;;;;;;8.10;6.03;;;;;;;6.25;100.00;99052.25;15299183;19;20035;-82
2024/03/07 10:55:11;;;;;;;7.22;5.80;;;;;;;6.30;100.00;99047.38;15307452;19;20010;-82
2024/03/07 11:00:43;;;;;;;7.65;6.20;;;;;;;6.26;100.00;99041.41;15301920;19;20011;-83
2024/03/07 11:06:11;;;;;;;8.38;6.28;;;;;;;6.54;100.00;99046.44;15304568;19;20027;-83
2024/03/07 11:41:13;;;;;;;6.97;5.82;;;;;;;6.50;100.00;99021.75;15300765;19;20002;-84
2024/03/07 11:46:43;;;;;;;7.47;5.53;;;;;;;6.54;100.00;99020.53;15312102;19;20018;-84
2024/03/07 11:52:11;;;;;;;6.05;4.88;;;;;;;6.43;100.00;99026.72;15299066;19;20033;-84
2024/03/07 11:57:40;;;;;;;6.78;5.57;;;;;;;6.36;100.00;99014.81;15300411;19;20078;-85
2024/03/07 12:03:06;;;;;;;7.55;5.60;;;;;;;6.25;100.00;99006.75;15325893;19;20036;-86
2024/03/07 12:08:31;;;;;;;8.13;6.20;;;;;;;6.15;100.00;99004.81;15340369;19;20047;-85
2024/03/07 12:13:59;;;;;;;6.82;5.53;;;;;;;6.08;100.00;99008.91;15368098;19;20032;-86
2024/03/07 12:19:28;;;;;;;9.65;5.90;;;;;;;6.14;100.00;99000.41;15361817;19;20010;-86
2024/03/07 12:25:10;;;;;;;8.20;5.65;;;;;;;6.13;100.00;99003.19;15357905;19;20017;-86
2024/03/07 12:30:50;;;;;;;7.55;6.43;;;;;;;6.07;100.00;98993.81;15354830;19;20025;-85
2024/03/07 12:36:16;;;;;;;8.07;6.15;;;;;;;6.13;100.00;98982.66;15356287;19;20019;-87
2024/03/07 12:41:48;;;;;;;8.25;6.43;;;;;;;6.13;100.00;98981.78;15286014;19;20362;-85
2024/03/07 12:47:16;;;;;;;8.00;6.30;;;;;;;6.36;100.00;98985.38;15291252;19;20006;-85
2024/03/07 12:52:49;;;;;;;7.78;6.55;;;;;;;6.42;100.00;98982.19;15281024;19;20015;-85
2024/03/07 12:58:15;;;;;;;10.50;7.15;;;;;;;6.22;100.00;98981.09;15297698;19;20081;-85
2024/03/07 13:03:44;;;;;;;8.95;7.00;;;;;;;6.04;100.00;98980.72;15299016;19;20041;-84
2024/03/07 13:09:10;;;;;;;10.02;6.35;;;;;;;5.84;100.00;98983.03;15299194;19;20026;-83
2024/03/07 13:14:36;;;;;;;7.47;5.88;;;;;;;5.81;100.00;98987.78;15302339;19;20010;-86
2024/03/07 13:20:11;;;;;;;8.93;6.35;;;;;;;5.70;100.00;98992.13;15300547;19;20096;-83
2024/03/07 13:25:41;;;;;;;7.43;5.87;;;;;;;5.64;100.00;98994.41;15297230;19;20473;-85
2024/03/07 13:31:06;;;;;;;6.40;5.50;;;;;;;5.62;100.00;98977.63;15320821;19;20287;-87
2024/03/07 13:36:33;;;;;;;7.32;5.57;;;;;;;5.50;100.00;98990.94;15314368;19;20018;-84
2024/03/07 13:41:57;;;;;;;7.72;6.05;;;;;;;5.42;100.00;98981.78;15298833;19;20025;-84
2024/03/07 13:47:22;;;;;;;6.57;5.60;;;;;;;5.33;100.00;98988.69;15311534;19;20021;-82
2024/03/07 13:53:04;;;;;;;7.78;5.70;;;;;;;5.35;100.00;98986.75;15300403;19;20018;-84
2024/03/07 13:58:45;;;;;;;6.72;5.60;;;;;;;5.33;100.00;98978.84;15296286;19;20029;-84
2024/03/07 14:04:37;;;;;;;6.60;5.77;;;;;;;5.32;100.00;98976.28;15296212;19;20011;-84
2024/03/07 14:10:31;;;;;;;7.17;5.50;;;;;;;5.38;100.00;98974.03;15292743;19;20026;-83
2024/03/07 14:16:42;;;;;;;6.97;6.28;;;;;;;5.34;100.00;98977.03;15300456;19;20014;-84
2024/03/07 14:22:15;;;;;;;;;;;;;;;5.21;100.00;98979.75;15299423;19;20050;-84
2024/03/07 14:27:49;;;;;;;7.40;6.70;;;;;;;5.01;100.00;98984.75;15300628;19;19918;-85
2024/03/07 14:33:21;;;;;;;7.30;6.53;;;;;;;4.96;100.00;98980.72;15302454;19;20018;-82
2024/03/07 14:38:52;;;;;;;7.80;6.72;;;;;;;4.84;100.00;98971.75;15299524;19;20031;-86
2024/03/07 14:44:19;;;;;;;8.25;6.70;;;;;;;4.77;100.00;98982.03;15311346;19;20026;-85
2024/03/07 14:49:46;;;;;;;8.20;6.28;;;;;;;4.68;100.00;98970.22;15299205;19;20014;-86
2024/03/07 14:55:15;;;;;;;8.10;6.35;;;;;;;4.68;100.00;98964.88;15300948;19;20082;-86
2024/03/07 15:00:43;;;;;;;9.63;6.50;;;;;;;4.69;100.00;98960.38;15294394;19;20019;-86
2024/03/07 15:06:15;;;;;;;7.35;6.60;;;;;;;4.59;100.00;98952.16;15298327;19;20398;-83
2024/03/07 15:11:40;;;;;;;9.38;6.53;;;;;;;4.53;100.00;98948.13;15301625;19;20018;-86
2024/03/07 15:17:10;;;;;;;7.95;6.55;;;;;;;4.50;100.00;98948.38;15304315;19;20545;-84
2024/03/07 15:22:46;;;;;;;8.52;6.80;;;;;;;4.49;100.00;98936.00;15304274;19;20014;-84
2024/03/07 15:28:13;;;;;;;8.15;7.30;;;;;;;4.50;100.00;98939.50;15298998;19;20491;-86
2024/03/07 15:33:43;;;;;;;9.15;7.28;;;;;;;4.45;100.00;98939.81;15304710;19;20013;-86
2024/03/07 15:39:15;;;;;;;8.23;6.88;;;;;;;4.36;100.00;98935.16;15299449;19;20018;-85
2024/03/07 15:44:44;;;;;;;9.65;7.45;;;;;;;4.18;100.00;98940.81;15298073;19;20007;-85
2024/03/07 15:50:11;;;;;;;10.27;7.63;;;;;;;4.04;100.00;98940.94;15302090;19;20015;-88
2024/03/07 15:55:39;;;;;;;8.73;7.68;;;;;;;3.94;100.00;98938.91;15285921;19;20095;-85
2024/03/07 16:01:16;;;;;;;10.88;7.85;;;;;;;3.97;100.00;98930.69;15294648;19;20090;-83
2024/03/07 16:06:45;;;;;;;9.80;7.53;;;;;;;4.14;100.00;98931.34;15290362;19;20020;-83
2024/03/07 16:12:17;;;;;;;9.55;8.00;;;;;;;4.28;100.00;98936.56;15296888;19;20098;-86
2024/03/07 16:17:44;;;;;;;8.57;7.35;;;;;;;4.32;100.00;98926.53;15299003;19;20026;-82
2024/03/07 16:23:11;;;;;;;8.70;7.13;;;;;;;4.28;100.00;98920.56;15288901;19;20039;-82
2024/03/07 16:28:41;;;;;;;8.68;6.80;;;;;;;4.22;100.00;98933.47;15295334;19;20481;-82
2024/03/07 16:34:11;;;;;;;9.43;6.93;;;;;;;4.04;100.00;98919.63;15308100;19;20020;-83
2024/03/07 16:39:36;;;;;;;9.65;7.70;;;;;;;3.82;100.00;98926.44;15305961;19;20018;-84
2024/03/07 16:45:04;;;;;;;7.85;7.00;;;;;;;3.64;100.00;98933.88;15305038;19;20010;-81
2024/03/07 16:50:40;;;;;;;8.60;7.40;;;;;;;3.46;100.00;98928.84;15308182;19;20011;-82
2024/03/07 16:56:04;;;;;;;9.52;7.22;;;;;;;3.31;100.00;98937.84;15310166;19;20462;-84
2024/03/07 17:01:44;;;;;;;9.05;8.05;;;;;;;3.10;100.00;98929.50;15314635;19;20088;-87
2024/03/07 17:07:22;;;;;;;8.70;7.35;;;;;;;2.93;100.00;98929.66;15312989;19;20293;-85
2024/03/07 17:12:52;;;;;;;9.27;7.88;;;;;;;2.76;100.00;98938.69;15304816;19;20082;-84
2024/03/07 17:18:21;;;;;;;10.40;8.30;;;;;;;2.63;100.00;98935.16;15306344;19;20071;-85
2024/03/07 17:23:51;;;;;;;9.07;8.18;;;;;;;2.49;100.00;98933.34;15307053;19;20010;-83
2024/03/07 17:29:20;;;;;;;10.30;7.65;;;;;;;2.37;100.00;98927.00;15047472;19;5002092;-82
2024/03/07 17:35:01;;;;;;;11.07;9.20;;;;;;;2.24;100.00;98937.56;15296525;19;20052;-81
2024/03/07 17:40:30;;;;;;;10.88;8.68;;;;;;;2.13;100.00;98930.25;15301272;19;20018;-82
2024/03/07 17:46:06;;;;;;;11.43;9.00;;;;;;;2.04;100.00;98933.50;15305297;19;20082;-84
2024/03/07 17:51:39;;;;;;;10.07;8.40;;;;;;;1.94;100.00;98941.16;15306878;19;20038;-85
2024/03/07 17:57:05;;;;;;;11.52;8.85;;;;;;;1.89;100.00;98932.59;15311874;19;20015;-84
2024/03/07 18:02:46;;;;;;;9.43;8.40;;;;;;;1.83;100.00;98939.16;15321104;19;20018;-85
2024/03/07 18:08:17;;;;;;;11.93;9.27;;;;;;;1.77;100.00;98944.84;15329821;19;20011;-82
2024/03/07 18:13:58;;;;;;;11.52;9.52;;;;;;;1.72;100.00;98935.44;15342773;19;20010;-84
2024/03/07 18:19:24;;;;;;;10.55;8.95;;;;;;;1.65;100.00;98937.63;15337334;19;20010;-83
2024/03/07 18:24:55;;;;;;;11.50;9.23;;;;;;;1.60;100.00;98937.03;15334138;19;20017;-85
2024/03/07 18:30:24;;;;;;;11.10;9.07;;;;;;;1.53;100.00;98937.41;15349500;19;20003;-88
2024/03/07 18:35:56;;;;;;;11.23;9.02;;;;;;;1.49;100.00;98941.19;15313335;19;20011;-83
2024/03/07 18:41:24;;;;;;;13.27;8.82;;;;;;;1.44;100.00;98940.63;15309422;19;20471;-87
2024/03/07 18:46:48;;;;;;;9.95;8.75;;;;;;;1.40;100.00;98933.75;15324129;19;20034;-83
2024/03/07 18:52:17;;;;;;;11.25;9.23;;;;;;;1.35;100.00;98935.84;15305635;19;20006;-85
2024/03/07 18:57:44;;;;;;;12.70;9.75;;;;;;;1.28;100.00;98940.66;15298891;19;20027;-83
2024/03/07 19:03:13;;;;;;;11.15;9.60;;;;;;;1.23;100.00;98934.75;15297685;19;20554;-86
2024/03/07 19:08:39;;;;;;;9.85;8.60;;;;;;;1.17;100.00;98935.13;15299895;19;20006;-84
2024/03/07 19:14:09;;;;;;;11.80;9.20;;;;;;;1.08;100.00;98928.53;15298457;19;20106;-83
2024/03/07 19:19:34;;;;;;;10.50;8.40;;;;;;;1.03;100.00;98928.81;15296934;19;20022;-88
2024/03/07 19:25:03;;;;;;;11.73;8.75;;;;;;;0.97;100.00;98917.69;15300548;19;20074;-83
2024/03/07 19:30:35;;;;;;;10.85;9.20;;;;;;;0.94;100.00;98928.47;15303394;19;20039;-86
2024/03/07 19:36:04;;;;;;;9.63;8.63;;;;;;;0.94;100.00;98921.38;15299914;19;20036;-84
2024/03/07 19:41:31;;;;;;;13.38;9.02;;;;;;;0.96;100.00;98911.50;15300139;19;20017;-83
2024/03/07 19:46:58;;;;;;;12.77;9.68;;;;;;;0.98;100.00;98911.44;15294128;19;20058;-85
2024/03/07 19:52:23;;;;;;;10.32;9.10;;;;;;;0.99;100.00;98913.16;15291434;19;20014;-82
2024/03/07 19:57:49;;;;;;;12.52;9.60;;;;;;;0.97;100.00;98909.72;15296710;19;20007;-82
2024/03/07 20:03:23;;;;;;;12.63;9.63;;;;;;;0.94;100.00;98917.88;15303552;19;20020;-83
2024/03/07 20:08:48;;;;;;;12.95;9.38;;;;;;;0.94;100.00;98917.88;15325174;19;20014;-82
2024/03/07 20:14:16;;;;;;;13.18;9.75;;;;;;;0.94;100.00;98920.50;15321535;19;20043;-82
2024/03/07 20:19:44;;;;;;;11.60;10.00;;;;;;;0.86;100.00;98916.50;15319148;19;20019;-82
2024/03/07 20:25:16;;;;;;;10.63;9.52;;;;;;;0.84;100.00;98910.44;15328179;19;20088;-82
2024/03/07 20:30:44;;;;;;;13.77;10.13;;;;;;;0.79;100.00;98904.53;15330847;19;20086;-82
2024/03/07 20:36:13;;;;;;;12.68;9.75;;;;;;;0.78;100.00;98902.81;15317995;19;20781;-84
2024/03/07 20:41:43;;;;;;;11.30;9.80;;;;;;;0.80;100.00;98900.94;14805927;19;10000447;-87
2024/03/07 20:47:02;;;;;;;12.65;10.13;;;;;;;0.81;100.00;98897.34;15324749;19;20046;-88
2024/03/07 20:52:38;;;;;;;12.73;10.02;;;;;;;0.77;100.00;98890.50;15321286;19;20740;-88
2024/03/07 20:58:15;;;;;;;12.27;9.93;;;;;;;0.70;100.00;98892.66;15328451;19;20018;-86
2024/03/07 21:03:45;;;;;;;11.35;9.95;;;;;;;0.67;100.00;98889.31;15329296;19;20010;-87
2024/03/07 21:09:17;;;;;;;13.00;10.10;;;;;;;0.64;100.00;98889.50;15324290;19;20613;-86
2024/03/07 21:14:43;;;;;;;13.43;10.32;;;;;;;0.60;100.00;98868.47;15318478;19;20011;-86
2024/03/07 21:20:11;;;;;;;11.02;9.65;;;;;;;0.56;100.00;98869.56;15308212;19;20011;-85
2024/03/07 21:25:38;;;;;;;12.30;11.00;;;;;;;0.52;100.00;98870.69;15315209;19;20092;-85
2024/03/07 21:31:06;;;;;;;13.70;10.98;;;;;;;0.50;100.00;98869.06;15300894;19;20053;-87
2024/03/07 21:36:31;;;;;;;12.80;10.90;;;;;;;0.43;100.00;98876.50;15301044;19;20024;-87
2024/03/07 21:42:01;;;;;;;14.00;11.18;;;;;;;0.38;100.00;98870.63;15299083;19;20022;-86
2024/03/07 21:47:28;;;;;;;12.68;11.30;;;;;;;0.33;100.00;98859.41;15307023;19;20024;-87
2024/03/07 21:52:59;;;;;;;12.20;10.90;;;;;;;0.26;100.00;98859.75;15306274;19;20014;-86
2024/03/07 21:58:27;;;;;;;14.15;11.50;;;;;;;0.24;100.00;98850.16;15309295;19;20018;-86
2024/03/07 22:03:52;;;;;;;13.90;11.25;;;;;;;0.19;100.00;98847.78;15302215;19;20014;-86
2024/03/07 22:09:16;;;;;;;13.48;11.13;;;;;;;0.14;100.00;98847.19;15312501;19;20371;-85
2024/03/07 22:14:46;;;;;;;11.77;10.52;;;;;;;0.11;100.00;98847.34;15373038;19;20010;-85
2024/03/07 22:20:22;;;;;;;13.55;11.73;;;;;;;0.09;100.00;98841.28;15371727;19;20007;-85
2024/03/07 22:26:06;;;;;;;12.80;11.40;;;;;;;0.03;100.00;98845.13;15370684;19;20040;-84
2024/03/07 22:31:44;;;;;;;13.50;11.55;;;;;;;-0.02;100.00;98845.38;15375985;19;20034;-84
2024/03/07 22:37:53;;;;;;;13.52;11.48;;;;;;;-0.07;100.00;98842.13;15376465;19;20006;-83
2024/03/07 22:43:48;;;;;;;13.32;11.68;;;;;;;-0.11;100.00;98837.94;15321362;19;20340;-87
2024/03/07 22:50:20;;;;;;;14.45;11.80;;;;;;;-0.18;100.00;98832.13;15307842;19;20021;-87
2024/03/07 22:56:11;;;;;;;14.00;11.32;;;;;;;-0.20;100.00;98835.78;15311259;19;20011;-86
2024/03/07 23:02:42;;;;;;;13.32;11.77;;;;;;;-0.25;100.00;98827.22;15304068;19;20006;-87
2024/03/07 23:14:00;;;;;;;18.13;11.95;;;;;;;-0.29;100.00;98817.75;15298047;19;20018;-86
2024/03/07 23:19:25;;;;;;;15.68;11.98;;;;;;;-0.33;100.00;98819.69;15294944;19;20051;-86
2024/03/07 23:24:54;;;;;;;15.60;11.75;;;;;;;-0.36;100.00;98820.72;15297742;19;20031;-88
2024/03/07 23:30:25;;;;;;;15.15;12.40;;;;;;;-0.42;100.00;98810.47;15296997;19;20074;-87
2024/03/07 23:35:56;;;;;;;15.80;11.80;;;;;;;-0.43;100.00;98813.19;15305928;19;20313;-88
2024/03/07 23:41:25;;;;;;;15.02;12.60;;;;;;;-0.47;100.00;98802.75;15291509;19;20035;-86
2024/03/07 23:46:52;;;;;;;14.02;12.52;;;;;;;-0.45;100.00;98802.69;15298479;19;20772;-87
2024/03/07 23:52:25;;;;;;;15.45;12.55;;;;;;;-0.50;100.00;98794.13;15301901;19;20032;-87
2024/03/07 23:58:09;;;;;;;16.02;12.90;;;;;;;-0.49;100.00;98795.84;15299013;19;20074;-87
